Time;durP1;ratioP1;P1;durP2;ratioP2;P2;SDS_P1;SDS_P2;PMS_P1;PMS_P2;Temp;Humidity;BMP_temperature;BMP_pressure;BME280_temperature;BME280_humidity;BME280_pressure;Samples;Min_cycle;Max_cycle;Signal;HPM_P1;HPM_P2
2022/11/03 00:01:28;;;;;;;9.48;1.70;;;;;;;-142.75;100.00;76967.94;5031751;28;20039;-69
2022/11/03 00:03:54;;;;;;;7.32;1.00;;;;;;;-142.75;100.00;76958.09;5011268;28;20522;-67
2022/11/03 00:06:19;;;;;;;10.38;1.73;;;;;;;-142.75;100.00;76964.00;4995193;28;20079;-67
2022/11/03 00:08:45;;;;;;;6.15;1.40;;;;;;;-142.75;100.00;76962.03;5022103;28;20322;-67
2022/11/03 00:11:12;;;;;;;7.93;1.45;;;;;;;-142.75;100.00;76956.13;5021455;28;20364;-67
2022/11/03 00:13:41;;;;;;;9.50;0.98;;;;;;;-142.75;100.00;76960.06;4981997;28;20025;-68
2022/11/03 00:16:09;;;;;;;12.45;1.42;;;;;;;-142.75;100.00;76958.09;5021395;28;20606;-67
2022/11/03 00:18:35;;;;;;;11.73;1.67;;;;;;;-142.75;100.00;76952.19;5002898;28;20139;-67
2022/11/03 00:21:08;;;;;;;7.60;1.60;;;;;;;-142.75;100.00;76946.28;5020994;28;20185;-69
2022/11/03 00:23:37;;;;;;;11.75;2.05;;;;;;;-142.75;100.00;76950.22;5003046;28;20046;-66
2022/11/03 00:26:10;;;;;;;11.32;1.80;;;;;;;-142.75;100.00;76944.31;5002559;28;20054;-67
2022/11/03 00:28:36;;;;;;;8.35;1.35;;;;;;;-142.75;100.00;76950.22;5020724;28;20027;-69
2022/11/03 00:31:04;;;;;;;;;;;;;;;-142.75;100.00;76932.50;5021762;28;20036;-67
2022/11/03 00:33:33;;;;;;;10.55;1.65;;;;;;;-142.75;100.00;76942.34;5020879;28;20047;-69
2022/11/03 00:36:00;;;;;;;9.75;1.73;;;;;;;-142.75;100.00;76948.25;5020948;28;20074;-68
2022/11/03 00:38:27;;;;;;;6.57;1.60;;;;;;;-142.75;100.00;76946.28;5002543;28;20101;-67
2022/11/03 00:41:02;;;;;;;18.30;2.15;;;;;;;-142.75;100.00;76950.22;5020734;28;20536;-67
2022/11/03 00:43:29;;;;;;;9.10;1.60;;;;;;;-142.75;100.00;76950.22;5002825;28;20198;-68
2022/11/03 00:45:55;;;;;;;10.50;1.35;;;;;;;-142.75;100.00;76952.19;5019934;28;20352;-68
2022/11/03 00:48:33;;;;;;;11.52;2.05;;;;;;;-142.75;100.00;76954.16;5002012;28;20349;-68
2022/11/03 00:51:10;;;;;;;12.73;1.92;;;;;;;-142.75;100.00;76954.16;5021077;28;20059;-67
2022/11/03 00:53:40;;;;;;;;;;;;;;;-142.75;100.00;76956.13;5021755;28;20497;-67
2022/11/03 00:56:08;;;;;;;11.77;1.55;;;;;;;-142.75;100.00;76956.13;5002403;28;19977;-68
2022/11/03 00:58:33;;;;;;;7.50;1.55;;;;;;;-142.75;100.00;76956.13;5020522;28;20135;-68
2022/11/03 01:01:01;;;;;;;10.57;1.52;;;;;;;-142.75;100.00;76960.06;5020603;28;20364;-67
2022/11/03 01:03:26;;;;;;;8.50;1.35;;;;;;;-142.75;100.00;76960.06;5021505;28;20217;-68
2022/11/03 01:08:36;;;;;;;5.53;1.40;;;;;;;-142.75;100.00;76962.03;5014351;28;20305;-68
2022/11/03 01:14:04;;;;;;;11.75;1.77;;;;;;;-142.75;100.00;76952.19;5021214;28;20400;-67
2022/11/03 01:16:30;;;;;;;;;;;;;;;-142.75;100.00;76956.13;5002667;28;20043;-68
2022/11/03 01:18:56;;;;;;;10.30;2.00;;;;;;;-142.75;100.00;76954.16;5001875;28;20233;-67
2022/11/03 01:21:21;;;;;;;5.13;1.63;;;;;;;-142.75;100.00;76962.03;5002034;28;20028;-69
2022/11/03 01:23:47;;;;;;;6.95;1.65;;;;;;;-142.75;100.00;76967.94;5020392;28;20055;-68
2022/11/03 01:26:13;;;;;;;7.15;1.45;;;;;;;-142.75;100.00;76964.00;5020322;28;20376;-68
2022/11/03 01:28:42;;;;;;;6.93;1.25;;;;;;;-142.75;100.00;76971.88;5021035;28;20318;-68
2022/11/03 01:31:10;;;;;;;9.40;1.52;;;;;;;-142.75;100.00;76979.75;5020529;28;20043;-68
2022/11/03 01:33:36;;;;;;;11.75;1.55;;;;;;;-142.75;100.00;76987.63;5002043;28;20028;-67
2022/11/03 01:36:02;;;;;;;12.63;1.70;;;;;;;-142.75;100.00;76993.53;5020322;28;20322;-68
2022/11/03 01:38:31;;;;;;;11.85;1.80;;;;;;;-142.75;100.00;76983.69;5020074;28;20046;-67
2022/11/03 01:40:58;;;;;;;9.32;1.75;;;;;;;-142.75;100.00;76989.59;5019731;28;20032;-66
2022/11/03 01:43:26;;;;;;;8.70;1.52;;;;;;;-142.75;100.00;76987.63;5001731;28;20112;-68
2022/11/03 01:46:05;;;;;;;10.60;1.48;;;;;;;-142.75;100.00;76975.81;5019800;28;20028;-67
2022/11/03 01:48:33;;;;;;;13.45;2.30;;;;;;;-142.75;100.00;76981.72;5002168;28;20201;-68
2022/11/03 01:51:00;;;;;;;12.77;1.92;;;;;;;-142.75;100.00;76981.72;5019839;28;20085;-67
2022/11/03 01:53:27;;;;;;;9.43;2.15;;;;;;;-142.75;100.00;76983.69;5001867;28;20031;-67
2022/11/03 01:55:55;;;;;;;11.95;1.85;;;;;;;-142.75;100.00;76975.81;5017871;28;20028;-67
2022/11/03 01:58:25;;;;;;;8.65;1.98;;;;;;;-142.75;100.00;76975.81;5020565;28;20131;-68
2022/11/03 02:00:53;;;;;;;11.07;1.50;;;;;;;-142.75;100.00;76971.88;5000971;28;20024;-67
2022/11/03 02:03:20;;;;;;;11.10;1.50;;;;;;;-142.75;100.00;76960.06;5024286;28;20016;-68
2022/11/03 02:05:48;;;;;;;12.30;2.25;;;;;;;-142.75;100.00;76958.09;5023977;28;20105;-68
2022/11/03 02:08:29;;;;;;;6.90;1.77;;;;;;;-142.75;100.00;76960.06;5005309;28;20055;-68
2022/11/03 02:10:56;;;;;;;15.30;2.40;;;;;;;-142.75;100.00;76956.13;5020930;28;20023;-67
2022/11/03 02:13:26;;;;;;;9.88;1.95;;;;;;;-142.75;100.00;76952.19;5023492;28;20024;-67
2022/11/03 02:15:56;;;;;;;12.82;1.65;;;;;;;-142.75;100.00;76950.22;5023547;28;20052;-67
2022/11/03 02:18:25;;;;;;;7.75;1.52;;;;;;;-142.75;100.00;76948.25;5023733;28;20028;-67
2022/11/03 02:21:29;;;;;;;6.97;1.35;;;;;;;-142.75;100.00;76942.34;5004875;28;20023;-67
2022/11/03 02:24:08;;;;;;;11.95;2.03;;;;;;;-142.75;100.00;76940.38;4996483;28;20556;-68
2022/11/03 02:26:34;;;;;;;10.95;1.55;;;;;;;-142.75;100.00;76928.56;5023153;28;20032;-68
2022/11/03 02:29:00;;;;;;;10.15;1.60;;;;;;;-142.75;100.00;76928.56;5022655;28;20028;-68
2022/11/03 02:31:46;;;;;;;6.35;1.30;;;;;;;-142.75;100.00;76924.63;5004749;28;20306;-67
2022/11/03 02:34:21;;;;;;;12.60;2.00;;;;;;;-142.75;100.00;76918.72;5020974;28;20055;-67
2022/11/03 02:37:00;;;;;;;5.07;1.20;;;;;;;-142.75;100.00;76904.94;5023095;28;20540;-67
2022/11/03 02:39:37;;;;;;;10.00;1.73;;;;;;;-142.75;100.00;76902.97;5016621;28;20019;-67
2022/11/03 02:42:04;;;;;;;8.57;1.30;;;;;;;-142.75;100.00;76904.94;5012892;28;20051;-66
2022/11/03 02:44:32;;;;;;;7.95;1.60;;;;;;;-142.75;100.00;76889.19;5023203;28;20024;-67
2022/11/03 02:47:01;;;;;;;10.80;1.52;;;;;;;-142.75;100.00;76887.22;5022683;28;20050;-67
2022/11/03 02:49:27;;;;;;;12.57;1.75;;;;;;;-142.75;100.00;76881.31;5022356;28;20032;-67
2022/11/03 02:52:03;;;;;;;14.48;1.52;;;;;;;-142.75;100.00;76869.50;5022676;28;20201;-67
2022/11/03 02:54:33;;;;;;;;;;;;;;;-142.75;100.00;76869.50;5023080;28;20633;-67
2022/11/03 02:57:10;;;;;;;8.40;1.58;;;;;;;-142.75;100.00;76871.47;5004770;28;20448;-67
2022/11/03 02:59:49;;;;;;;9.52;1.75;;;;;;;-142.75;100.00;76865.56;5023159;28;20023;-67
2022/11/03 03:02:21;;;;;;;5.97;1.77;;;;;;;-142.75;100.00;76861.63;5004047;28;20028;-67
2022/11/03 03:04:55;;;;;;;6.25;1.40;;;;;;;-142.75;100.00;76853.75;5022531;28;20043;-66
2022/11/03 03:07:29;;;;;;;6.95;1.67;;;;;;;-142.75;100.00;76851.78;5004495;28;20024;-68
2022/11/03 03:10:03;;;;;;;5.50;1.20;;;;;;;-142.75;100.00;76849.81;4993705;28;20134;-67
2022/11/03 03:12:32;;;;;;;9.32;1.27;;;;;;;-142.75;100.00;76853.75;4997525;28;20023;-67
2022/11/03 03:15:01;;;;;;;17.02;1.73;;;;;;;-142.75;100.00;76853.75;5003957;28;20023;-67
2022/11/03 03:17:29;;;;;;;8.77;1.67;;;;;;;-142.75;100.00;76861.63;5003445;28;20024;-68
2022/11/03 03:20:15;;;;;;;7.50;1.48;;;;;;;-142.75;100.00;76855.72;5021871;28;20674;-67
2022/11/03 03:22:50;;;;;;;10.55;1.83;;;;;;;-142.75;100.00;76845.88;5021306;28;20062;-67
2022/11/03 03:25:33;;;;;;;10.98;1.58;;;;;;;-142.75;100.00;76845.88;5021900;28;20055;-67
2022/11/03 03:28:20;;;;;;;7.55;1.30;;;;;;;-142.75;100.00;76847.84;5022057;28;20028;-67
2022/11/03 03:30:47;;;;;;;9.52;1.90;;;;;;;-142.75;100.00;76853.75;5022095;28;20036;-67
2022/11/03 03:33:14;;;;;;;10.55;1.55;;;;;;;-142.75;100.00;76845.88;5021713;28;20012;-66
2022/11/03 03:35:43;;;;;;;14.63;1.63;;;;;;;-142.75;100.00;76857.69;5021564;28;20032;-66
2022/11/03 03:38:17;;;;;;;7.82;1.38;;;;;;;-142.75;100.00;76851.78;5021875;28;20622;-67
2022/11/03 03:40:47;;;;;;;9.32;1.88;;;;;;;-142.75;100.00;76841.94;5021701;28;21032;-67
2022/11/03 03:43:13;;;;;;;9.27;1.58;;;;;;;-142.75;100.00;76845.88;5002870;28;20028;-67
2022/11/03 03:45:43;;;;;;;12.77;1.77;;;;;;;-142.75;100.00;76845.88;5003557;28;20337;-67
2022/11/03 03:48:08;;;;;;;6.82;1.15;;;;;;;-142.75;100.00;76849.81;5021362;28;20131;-67
2022/11/03 03:50:37;;;;;;;6.85;1.42;;;;;;;-142.75;100.00;76857.69;5021593;28;20461;-68
2022/11/03 03:53:05;;;;;;;12.32;1.90;;;;;;;-142.75;100.00;76845.88;5021562;28;20625;-67
2022/11/03 03:55:41;;;;;;;4.68;1.38;;;;;;;-142.75;100.00;76834.06;5010266;28;20016;-67
2022/11/03 03:58:09;;;;;;;11.60;1.48;;;;;;;-142.75;100.00;76839.97;5021427;28;20100;-67
2022/11/03 04:00:34;;;;;;;9.70;1.60;;;;;;;-142.75;100.00;76851.78;5002928;28;20016;-68
2022/11/03 04:03:00;;;;;;;7.72;1.73;;;;;;;-142.75;100.00;76836.03;5021003;28;20468;-67
2022/11/03 04:05:26;;;;;;;13.00;2.20;;;;;;;-142.75;100.00;76830.13;5021584;28;20303;-68
2022/11/03 04:07:52;;;;;;;11.65;2.10;;;;;;;-142.75;100.00;76826.19;5020975;28;20342;-68
2022/11/03 04:10:21;;;;;;;10.88;1.40;;;;;;;-142.75;100.00;76843.91;5021081;28;20317;-68
2022/11/03 04:23:46;;;;;;;11.30;1.67;;;;;;;-142.75;100.00;76820.28;5020237;28;20151;-67
2022/11/03 04:26:14;;;;;;;11.25;1.85;;;;;;;-142.75;100.00;76824.22;5021392;28;20031;-67
2022/11/03 04:28:41;;;;;;;6.07;1.48;;;;;;;-142.75;100.00;76812.41;5020869;28;20093;-66
2022/11/03 04:31:11;;;;;;;8.63;1.58;;;;;;;-142.75;100.00;76808.50;5020541;28;20019;-67
2022/11/03 04:33:36;;;;;;;7.68;1.48;;;;;;;-142.75;100.00;76810.44;5020628;28;20028;-68
2022/11/03 04:36:10;;;;;;;9.18;1.60;;;;;;;-142.75;100.00;76818.31;5021073;28;20345;-67
2022/11/03 04:38:36;;;;;;;9.60;1.85;;;;;;;-142.75;100.00;76806.50;5020649;28;20020;-68
2022/11/03 04:41:11;;;;;;;9.80;1.38;;;;;;;-142.75;100.00;76806.50;5002309;28;20298;-68
2022/11/03 04:43:37;;;;;;;8.32;1.40;;;;;;;-142.75;100.00;76800.63;5021055;28;20032;-68
2022/11/03 04:46:04;;;;;;;9.40;1.73;;;;;;;-142.75;100.00;76806.50;5022228;28;20051;-68
2022/11/03 04:48:29;;;;;;;10.60;1.83;;;;;;;-142.75;100.00;76806.50;4990998;28;20549;-67
2022/11/03 04:50:59;;;;;;;10.75;1.52;;;;;;;-142.75;100.00;76802.56;5021031;28;20032;-68
2022/11/03 04:53:29;;;;;;;9.35;1.52;;;;;;;-142.75;100.00;76808.50;5002397;28;20039;-67
2022/11/03 04:55:54;;;;;;;9.63;1.90;;;;;;;-142.75;100.00;76812.41;5021080;28;20555;-66
2022/11/03 04:58:25;;;;;;;8.25;1.45;;;;;;;-142.75;100.00;76798.66;5020331;28;20047;-67
2022/11/03 05:00:53;;;;;;;9.35;1.77;;;;;;;-142.75;100.00;76798.66;5002587;28;20056;-68
2022/11/03 05:03:22;;;;;;;10.52;1.90;;;;;;;-142.75;100.00;76782.91;5002755;28;20031;-67
2022/11/03 05:05:48;;;;;;;11.50;1.40;;;;;;;-142.75;100.00;76786.84;5020146;28;20151;-68
2022/11/03 05:08:17;;;;;;;6.05;1.30;;;;;;;-142.75;100.00;76769.13;5020135;28;20032;-68
2022/11/03 05:10:44;;;;;;;9.68;2.00;;;;;;;-142.75;100.00;76767.16;5020265;28;20024;-68
2022/11/03 05:13:20;;;;;;;14.85;1.88;;;;;;;-142.75;100.00;76767.16;4999542;28;20024;-68
2022/11/03 05:15:48;;;;;;;12.15;1.80;;;;;;;-142.75;100.00;76778.97;5002024;28;20020;-69
2022/11/03 05:18:20;;;;;;;9.55;1.40;;;;;;;-142.75;100.00;76765.19;5020511;28;20036;-67
2022/11/03 05:20:53;;;;;;;7.82;1.15;;;;;;;-142.75;100.00;76755.34;4996911;28;20295;-67
2022/11/03 05:23:20;;;;;;;6.80;1.38;;;;;;;-142.75;100.00;76761.25;5020428;28;20048;-68
2022/11/03 05:25:57;;;;;;;7.47;1.38;;;;;;;-142.75;100.00;76771.09;5020088;28;20036;-67
2022/11/03 05:28:44;;;;;;;17.77;2.00;;;;;;;-142.75;100.00;76771.09;5020335;28;20054;-68
2022/11/03 05:31:22;;;;;;;7.35;1.77;;;;;;;-142.75;100.00;76763.22;5003698;28;20047;-67
2022/11/03 05:33:50;;;;;;;9.82;1.58;;;;;;;-142.75;100.00;76777.00;5020080;28;20024;-68
2022/11/03 05:36:29;;;;;;;7.97;1.42;;;;;;;-142.75;100.00;76777.00;5023689;28;20536;-66
2022/11/03 05:39:09;;;;;;;10.27;1.52;;;;;;;-142.75;100.00;76763.22;5024013;28;20130;-68
2022/11/03 05:41:35;;;;;;;10.57;1.85;;;;;;;-142.75;100.00;76763.22;5024255;28;20020;-67
2022/11/03 05:44:13;;;;;;;8.60;1.55;;;;;;;-142.75;100.00;76747.47;5023584;28;20047;-67
2022/11/03 05:46:39;;;;;;;12.32;1.90;;;;;;;-142.75;100.00;76747.47;5023953;28;20028;-68
2022/11/03 05:49:06;;;;;;;7.10;1.63;;;;;;;-142.75;100.00;76753.38;5023952;28;20321;-68
2022/11/03 05:51:36;;;;;;;10.02;1.70;;;;;;;-142.75;100.00;76741.56;5005522;28;20193;-68
2022/11/03 05:54:05;;;;;;;4.35;1.58;;;;;;;-142.75;100.00;76743.53;5024067;28;20122;-68
2022/11/03 05:56:34;;;;;;;11.75;2.17;;;;;;;-142.75;100.00;76743.53;5023605;28;20051;-67
2022/11/03 05:59:01;;;;;;;10.40;2.05;;;;;;;-142.75;100.00;76735.66;5004818;28;20048;-66
2022/11/03 06:01:32;;;;;;;10.27;1.70;;;;;;;-142.75;100.00;76747.47;5050820;22;20555;-68
2022/11/03 06:04:17;;;;;;;6.75;1.42;;;;;;;-142.75;100.00;76743.53;5031653;28;20109;-68
2022/11/03 06:06:49;;;;;;;10.70;1.90;;;;;;;-142.75;100.00;76747.47;5010299;28;20024;-67
2022/11/03 06:09:19;;;;;;;12.77;2.33;;;;;;;-142.75;100.00;76735.66;5005051;28;20182;-67
2022/11/03 06:11:45;;;;;;;13.40;1.90;;;;;;;-142.75;100.00;76737.63;4996909;28;20016;-68
2022/11/03 06:14:19;;;;;;;7.93;1.42;;;;;;;-142.75;100.00;76727.78;5010669;28;20194;-68
2022/11/03 06:16:58;;;;;;;11.27;2.45;;;;;;;-142.75;100.00;76715.97;5022322;28;20050;-68
2022/11/03 06:19:48;;;;;;;10.10;1.60;;;;;;;-142.75;100.00;76717.94;5009211;28;20051;-67
2022/11/03 06:22:19;;;;;;;8.50;1.98;;;;;;;-142.75;100.00;76719.91;5006235;28;20029;-68
2022/11/03 06:24:45;;;;;;;13.05;1.88;;;;;;;-142.75;100.00;76715.97;5015963;28;20060;-68
2022/11/03 06:27:21;;;;;;;;;;;;;;;-142.75;100.00;76712.03;5018951;28;20024;-68
2022/11/03 06:29:56;;;;;;;8.35;1.98;;;;;;;-142.75;100.00;76712.03;5021240;28;19969;-68
2022/11/03 06:32:21;;;;;;;10.80;1.95;;;;;;;-142.75;100.00;76706.13;5022312;28;20620;-68
2022/11/03 06:34:53;;;;;;;6.32;1.65;;;;;;;-142.75;100.00;76700.22;5012832;28;20019;-69
2022/11/03 06:37:18;;;;;;;9.35;2.20;;;;;;;-142.75;100.00;76704.16;5010170;28;20575;-68
2022/11/03 06:39:44;;;;;;;6.15;2.20;;;;;;;-142.75;100.00;76704.16;5005366;28;20024;-68
2022/11/03 06:42:12;;;;;;;12.98;1.52;;;;;;;-142.75;100.00;76690.38;5012341;28;20037;-68
2022/11/03 06:44:40;;;;;;;6.32;1.50;;;;;;;-142.75;100.00;76706.13;4985766;28;20049;-68
2022/11/03 06:47:18;;;;;;;11.35;1.83;;;;;;;-142.75;100.00;76682.50;5009443;28;20040;-68
2022/11/03 06:49:44;;;;;;;8.10;1.13;;;;;;;-142.75;100.00;76678.56;5016196;28;20135;-67
2022/11/03 06:52:27;;;;;;;10.20;2.08;;;;;;;-142.75;100.00;76676.59;5022301;28;20332;-68
2022/11/03 06:55:12;;;;;;;6.93;1.58;;;;;;;-142.75;100.00;76670.69;5004080;28;20028;-68
2022/11/03 06:57:39;;;;;;;7.53;1.75;;;;;;;-142.75;100.00;76660.84;5011878;28;20020;-68
2022/11/03 07:00:26;;;;;;;9.90;1.42;;;;;;;-142.75;100.00;76664.78;5005021;28;20078;-68
2022/11/03 07:03:10;;;;;;;6.80;1.80;;;;;;;-142.75;100.00;76664.78;5008481;28;20034;-68
2022/11/03 07:05:36;;;;;;;8.23;1.70;;;;;;;-142.75;100.00;76662.81;5001251;28;20025;-68
2022/11/03 07:08:16;;;;;;;12.30;1.90;;;;;;;-142.75;100.00;76649.03;5021089;28;20031;-68
2022/11/03 07:10:41;;;;;;;6.75;1.48;;;;;;;-142.75;100.00;76656.91;5024923;28;20123;-68
2022/11/03 07:13:22;;;;;;;5.63;1.23;;;;;;;-142.75;100.00;76645.09;5003240;28;20365;-68
2022/11/03 07:15:48;;;;;;;7.10;1.30;;;;;;;-142.75;100.00;76660.84;5014093;28;20561;-66
2022/11/03 07:18:34;;;;;;;5.95;1.38;;;;;;;-142.75;100.00;76643.13;5015020;28;20084;-68
2022/11/03 07:21:18;;;;;;;8.85;1.70;;;;;;;-142.75;100.00;76633.28;5021803;28;20032;-68
2022/11/03 07:23:44;;;;;;;7.65;2.13;;;;;;;-142.75;100.00;76631.31;5013874;28;20032;-69
2022/11/03 07:26:10;;;;;;;8.52;1.67;;;;;;;-142.75;100.00;76633.28;5011145;28;20330;-68
2022/11/03 07:28:37;;;;;;;8.77;1.92;;;;;;;-142.75;100.00;76651.00;5016262;28;20527;-68
2022/11/03 07:31:15;;;;;;;10.45;1.90;;;;;;;-142.75;100.00;76641.16;5013139;28;20127;-68
2022/11/03 07:33:40;;;;;;;8.55;2.53;;;;;;;-142.75;100.00;76633.28;4991264;28;20024;-68
2022/11/03 07:36:09;;;;;;;11.07;1.85;;;;;;;-142.75;100.00;76629.34;4984763;28;20311;-68
2022/11/03 07:38:35;;;;;;;11.10;1.98;;;;;;;-142.75;100.00;76625.41;5001406;28;20029;-68
2022/11/03 07:41:00;;;;;;;8.63;1.70;;;;;;;-142.75;100.00;76625.41;5002053;28;20326;-67
2022/11/03 07:43:37;;;;;;;9.27;1.58;;;;;;;-142.75;100.00;76637.22;5017573;28;20024;-68
2022/11/03 07:46:04;;;;;;;8.63;2.05;;;;;;;-142.75;100.00;76627.38;5021780;28;20036;-69
2022/11/03 07:48:35;;;;;;;10.63;1.60;;;;;;;-142.75;100.00;76623.44;5011579;28;20102;-68
2022/11/03 07:51:11;;;;;;;9.68;1.75;;;;;;;-142.75;100.00;76617.53;5018398;28;20873;-68
2022/11/03 07:53:42;;;;;;;7.50;1.45;;;;;;;-142.75;100.00;76609.66;5008312;28;20109;-68
2022/11/03 07:56:21;;;;;;;9.65;1.73;;;;;;;-142.75;100.00;76601.78;5011531;28;20032;-68
2022/11/03 07:58:51;;;;;;;17.10;2.17;;;;;;;-142.75;100.00;76601.78;4994017;28;20545;-68
2022/11/03 08:01:28;;;;;;;6.70;1.65;;;;;;;-142.75;100.00;76595.88;5007593;28;20151;-69
2022/11/03 08:04:15;;;;;;;12.02;2.30;;;;;;;-142.75;100.00;76599.81;5063604;28;20504;-68
2022/11/03 08:06:41;;;;;;;5.13;1.50;;;;;;;-142.75;100.00;76582.09;5060666;28;20028;-68
2022/11/03 08:09:06;;;;;;;8.10;1.67;;;;;;;-142.75;100.00;76574.22;5079469;28;20035;-69
2022/11/03 08:11:31;;;;;;;7.32;2.22;;;;;;;-142.75;100.00;76570.28;5079463;28;20036;-70
2022/11/03 08:13:56;;;;;;;12.88;2.13;;;;;;;-142.75;100.00;76552.56;5079405;28;20028;-70
2022/11/03 08:16:22;;;;;;;9.13;1.52;;;;;;;-142.75;100.00;76544.69;5079375;28;20016;-70
2022/11/03 08:18:47;;;;;;;;;;;;;;;-142.75;100.00;76552.56;5079158;28;20785;-70
2022/11/03 08:21:13;;;;;;;9.35;1.50;;;;;;;-142.75;100.00;76538.78;5078842;28;19912;-69
2022/11/03 08:23:38;;;;;;;;;;;;;;;-142.75;100.00;76527.00;5079974;28;20031;-70
2022/11/03 08:26:04;;;;;;;11.30;1.88;;;;;;;-142.75;100.00;76532.88;5078920;28;19916;-69
2022/11/03 08:28:32;;;;;;;10.05;1.80;;;;;;;-142.75;100.00;76532.88;5078606;28;20044;-68
2022/11/03 08:31:03;;;;;;;7.90;1.95;;;;;;;-142.75;100.00;76530.91;5078696;28;20066;-66
2022/11/03 08:33:32;;;;;;;10.85;1.85;;;;;;;-142.75;100.00;76517.16;5079197;28;20452;-72
2022/11/03 08:35:58;;;;;;;12.73;1.90;;;;;;;-142.75;100.00;76513.22;5077262;28;20582;-68
2022/11/03 08:38:24;;;;;;;10.35;2.03;;;;;;;-142.75;100.00;76503.38;5078549;28;20024;-69
2022/11/03 08:40:49;;;;;;;11.20;1.67;;;;;;;-142.75;100.00;76491.56;5077537;28;20028;-69
2022/11/03 08:43:14;;;;;;;;;;;;;;;-142.75;100.00;76475.81;5079819;28;20034;-69
2022/11/03 08:45:40;;;;;;;8.60;1.77;;;;;;;-142.75;100.00;76485.66;5079157;28;19919;-69
2022/11/03 08:48:05;;;;;;;;;;;;;;;-142.75;100.00;76471.88;5078358;28;20085;-70
2022/11/03 08:50:30;;;;;;;8.98;1.42;;;;;;;-142.75;100.00;76456.13;5077851;28;20727;-68
2022/11/03 08:52:56;;;;;;;11.35;1.52;;;;;;;-142.75;100.00;76465.97;5079060;28;20028;-69
2022/11/03 08:55:21;;;;;;;8.73;1.65;;;;;;;-142.75;100.00;76464.00;5078756;28;20020;-70
2022/11/03 08:57:46;;;;;;;7.10;1.88;;;;;;;-142.75;100.00;76456.13;5077959;28;20089;-69
2022/11/03 09:00:12;;;;;;;9.07;2.15;;;;;;;-142.75;100.00;76442.34;5060710;28;20028;-68
2022/11/03 09:02:38;;;;;;;;;;;;;;;-142.75;100.00;76448.25;5079551;28;20609;-69
2022/11/03 09:05:04;;;;;;;8.68;1.88;;;;;;;-142.75;100.00;76432.50;5078608;28;19911;-71
2022/11/03 09:07:30;;;;;;;8.15;1.50;;;;;;;-142.75;100.00;76426.59;5078105;28;20028;-68
2022/11/03 09:09:55;;;;;;;10.13;1.70;;;;;;;-142.75;100.00;76436.44;5079481;28;20024;-71
2022/11/03 09:12:20;;;;;;;10.63;2.13;;;;;;;-142.75;100.00;76430.53;5083030;28;20016;-69
2022/11/03 09:14:46;;;;;;;13.43;1.75;;;;;;;-142.75;100.00;76418.72;5082506;28;20031;-69
2022/11/03 09:17:11;;;;;;;10.30;1.88;;;;;;;-142.75;100.00;76418.72;5063811;28;20130;-70
2022/11/03 09:19:36;;;;;;;12.25;1.77;;;;;;;-142.75;100.00;76410.84;5082662;28;20119;-67
2022/11/03 09:22:02;;;;;;;10.98;1.67;;;;;;;-142.75;100.00;76389.19;5082146;28;20536;-68
2022/11/03 09:24:27;;;;;;;13.35;1.73;;;;;;;-142.75;100.00;76389.19;5065221;28;20060;-69
2022/11/03 09:26:52;;;;;;;11.85;1.45;;;;;;;-142.75;100.00;76381.31;5081808;28;20020;-68
2022/11/03 09:29:18;;;;;;;8.98;1.92;;;;;;;-142.75;100.00;76371.47;5082842;28;20510;-68
2022/11/03 09:31:43;;;;;;;8.02;1.77;;;;;;;-142.75;100.00;76357.69;5080988;28;20712;-68
2022/11/03 09:34:08;;;;;;;;;;;;;;;-142.75;100.00;76343.94;5083074;28;20104;-69
2022/11/03 09:36:33;;;;;;;8.32;1.45;;;;;;;-142.75;100.00;76341.97;5080845;28;19919;-69
2022/11/03 09:38:59;;;;;;;;;;;;;;;-142.75;100.00;76345.91;5082237;28;20031;-68
2022/11/03 09:41:24;;;;;;;6.60;1.33;;;;;;;-142.75;100.00;76334.09;5082539;28;19912;-68
2022/11/03 09:43:50;;;;;;;5.45;1.40;;;;;;;-142.75;100.00;76326.22;5064312;28;20080;-68
2022/11/03 09:46:17;;;;;;;13.10;1.88;;;;;;;-142.75;100.00;76312.44;5082521;28;20024;-68
2022/11/03 09:48:43;;;;;;;8.25;1.50;;;;;;;-142.75;100.00;76302.59;5069918;28;20537;-67
2022/11/03 09:51:13;;;;;;;8.70;1.52;;;;;;;-142.75;100.00;76306.53;5062159;28;20012;-68
2022/11/03 09:53:39;;;;;;;8.32;1.20;;;;;;;-142.75;100.00;76300.63;5062357;28;20017;-68
2022/11/03 09:56:04;;;;;;;11.13;1.60;;;;;;;-142.75;100.00;76290.78;5061620;28;20039;-68
2022/11/03 09:58:32;;;;;;;8.35;1.27;;;;;;;-142.75;100.00;76288.81;5061420;28;20474;-68
2022/11/03 10:00:59;;;;;;;10.23;1.60;;;;;;;-142.75;100.00;76286.84;5061386;28;20024;-68
2022/11/03 10:03:24;;;;;;;6.80;1.38;;;;;;;-142.75;100.00;76298.66;5061860;28;20211;-68
2022/11/03 10:05:50;;;;;;;7.72;1.70;;;;;;;-142.75;100.00;76286.84;5060355;28;20024;-68
2022/11/03 10:08:24;;;;;;;8.90;1.88;;;;;;;-142.75;100.00;76278.97;5060937;28;20090;-68
2022/11/03 10:10:50;;;;;;;8.45;1.50;;;;;;;-142.75;100.00;76271.09;5061634;28;20728;-69
2022/11/03 10:13:25;;;;;;;7.55;1.55;;;;;;;-142.75;100.00;76278.97;5061769;28;20111;-68
2022/11/03 10:15:50;;;;;;;7.68;1.90;;;;;;;-142.75;100.00;76273.06;5061462;28;20111;-68
2022/11/03 10:18:17;;;;;;;6.10;1.50;;;;;;;-142.75;100.00;76267.16;5060996;28;20031;-67
2022/11/03 10:20:43;;;;;;;9.23;1.80;;;;;;;-142.75;100.00;76257.31;5060880;28;20029;-68
2022/11/03 10:23:08;;;;;;;7.95;1.38;;;;;;;-142.75;100.00;76261.25;5059169;28;20020;-68
2022/11/03 10:25:38;;;;;;;8.20;1.55;;;;;;;-142.75;100.00;76249.44;5061949;28;20025;-68
2022/11/03 10:28:23;;;;;;;9.05;1.27;;;;;;;-142.75;100.00;76235.66;5060355;28;20025;-68
2022/11/03 10:30:52;;;;;;;6.03;1.38;;;;;;;-142.75;100.00;76235.66;5059957;28;20387;-68
2022/11/03 10:33:25;;;;;;;8.32;1.60;;;;;;;-142.75;100.00;76217.94;5061338;28;20028;-68
2022/11/03 10:35:51;;;;;;;8.25;1.10;;;;;;;-142.75;100.00;76221.88;5042571;28;20024;-68
2022/11/03 10:38:29;;;;;;;4.72;1.33;;;;;;;-142.75;100.00;76227.78;5060420;28;20024;-69
2022/11/03 10:40:54;;;;;;;5.38;1.40;;;;;;;-142.75;100.00;76221.88;5060640;28;20025;-68
2022/11/03 10:43:20;;;;;;;4.88;1.20;;;;;;;-142.75;100.00;76210.06;5042011;28;20021;-67
2022/11/03 10:45:46;;;;;;;;;;;;;;;-142.75;100.00;76202.19;5060385;28;20454;-68
2022/11/03 10:48:11;;;;;;;7.65;1.33;;;;;;;-142.75;100.00;76202.19;5060205;28;19969;-68
2022/11/03 10:50:40;;;;;;;4.28;1.05;;;;;;;-142.75;100.00;76168.75;5060959;28;20024;-68
2022/11/03 10:53:16;;;;;;;11.13;2.00;;;;;;;-142.75;100.00;76154.97;5060789;28;20032;-68
2022/11/03 10:55:41;;;;;;;4.68;1.17;;;;;;;-142.75;100.00;76133.31;5060999;28;20032;-68
2022/11/03 10:58:06;;;;;;;7.60;1.33;;;;;;;-142.75;100.00;76145.13;5059752;28;20025;-67
2022/11/03 11:00:32;;;;;;;;;;;;;;;-142.75;100.00;76109.69;5061358;28;20873;-67
2022/11/03 11:02:59;;;;;;;8.88;1.83;;;;;;;-142.75;100.00;76113.63;5060448;28;20685;-68
2022/11/03 11:05:25;;;;;;;9.48;1.45;;;;;;;-142.75;100.00;76115.59;5061061;28;20040;-68
2022/11/03 11:07:52;;;;;;;8.60;1.77;;;;;;;-142.75;100.00;76131.34;5041727;28;20031;-68
2022/11/03 11:10:26;;;;;;;7.20;1.65;;;;;;;-142.75;100.00;76119.53;5060550;28;20799;-68
2022/11/03 11:13:22;;;;;;;6.13;1.35;;;;;;;-142.75;100.00;76123.47;5060522;28;20591;-68
2022/11/03 11:15:48;;;;;;;7.07;1.30;;;;;;;-142.75;100.00;76097.88;5060580;28;20033;-68
2022/11/03 11:18:38;;;;;;;6.80;1.20;;;;;;;-142.75;100.00;76082.13;5059657;28;20027;-68
2022/11/03 11:21:19;;;;;;;4.57;1.50;;;;;;;-142.75;100.00;76086.06;5059881;28;20024;-70
2022/11/03 11:23:45;;;;;;;8.35;1.50;;;;;;;-142.75;100.00;76090.00;5060229;28;20074;-68
2022/11/03 11:26:26;;;;;;;5.05;1.42;;;;;;;-142.75;100.00;76082.13;5060339;28;20025;-68
2022/11/03 11:29:12;;;;;;;4.07;0.93;;;;;;;-142.75;100.00;76093.94;5059464;28;20090;-67
2022/11/03 11:31:39;;;;;;;7.32;1.35;;;;;;;-142.75;100.00;76088.03;5059866;28;20193;-68
2022/11/03 11:34:17;;;;;;;9.10;1.75;;;;;;;-142.75;100.00;76072.31;5059503;28;20020;-68
2022/11/03 11:36:46;;;;;;;9.05;1.70;;;;;;;-142.75;100.00;76058.53;5057820;28;20039;-68
2022/11/03 11:39:14;;;;;;;4.07;1.02;;;;;;;-142.75;100.00;76056.56;5059680;28;20347;-68